Weather at Westfield-Barnes Regional Airport

Public forecast

Using degrees Fahrenheit for public forecast. Weather courtesy of forecast.io.

Current aviation weather report (METAR) for Westfield-Barnes Regional Airport

Retrieved 2020/09/22 23:53 UTC (32 minutes ago):

KBAF 222353Z 36005KT 10SM CLR 13/01 A2985 RMK AO2 SLP110 T01330011 10228 20128 58004

Aviation forecast (TAF) for Westfield-Barnes Regional Airport

Retrieved 2020-09-23 00:30 UTC (0 seconds ago):

TAF KBAF 222327Z 2300/2324 33008KT P6SM FEW200 FM231500 30010G22KT P6SM SKC FM232300 30007KT P6SM FEW250